sensor_id;sensor_type;location;lat;lon;timestamp;P1;durP1;ratioP1;P2;durP2;ratioP2
77278;SDS011;66332;50.436;15.378;2024-03-02T00:02:13;38.33;;;19.33;;
77278;SDS011;66332;50.436;15.378;2024-03-02T00:06:54;42.55;;;19.70;;
77278;SDS011;66332;50.436;15.378;2024-03-02T00:11:36;42.45;;;20.33;;
77278;SDS011;66332;50.436;15.378;2024-03-02T00:16:17;45.17;;;19.60;;
77278;SDS011;66332;50.436;15.378;2024-03-02T00:20:59;46.42;;;20.00;;
77278;SDS011;66332;50.436;15.378;2024-03-02T00:25:42;45.15;;;21.27;;
77278;SDS011;66332;50.436;15.378;2024-03-02T00:35:26;46.30;;;20.90;;
77278;SDS011;66332;50.436;15.378;2024-03-02T00:40:07;47.95;;;21.30;;
77278;SDS011;66332;50.436;15.378;2024-03-02T00:44:48;46.17;;;20.70;;
77278;SDS011;66332;50.436;15.378;2024-03-02T00:49:29;43.42;;;21.02;;
77278;SDS011;66332;50.436;15.378;2024-03-02T00:54:10;47.50;;;21.50;;
77278;SDS011;66332;50.436;15.378;2024-03-02T00:58:51;48.63;;;23.00;;
77278;SDS011;66332;50.436;15.378;2024-03-02T01:03:33;50.00;;;22.67;;
77278;SDS011;66332;50.436;15.378;2024-03-02T01:08:15;45.25;;;20.55;;
77278;SDS011;66332;50.436;15.378;2024-03-02T01:12:55;44.38;;;20.95;;
77278;SDS011;66332;50.436;15.378;2024-03-02T01:17:37;47.53;;;21.60;;
77278;SDS011;66332;50.436;15.378;2024-03-02T01:22:18;48.70;;;22.50;;
77278;SDS011;66332;50.436;15.378;2024-03-02T01:27:05;51.53;;;22.67;;
77278;SDS011;66332;50.436;15.378;2024-03-02T01:31:46;55.13;;;23.77;;
77278;SDS011;66332;50.436;15.378;2024-03-02T01:36:27;54.45;;;22.00;;
77278;SDS011;66332;50.436;15.378;2024-03-02T01:41:07;54.50;;;23.20;;
77278;SDS011;66332;50.436;15.378;2024-03-02T01:45:48;51.80;;;23.13;;
77278;SDS011;66332;50.436;15.378;2024-03-02T01:50:31;55.38;;;22.50;;
77278;SDS011;66332;50.436;15.378;2024-03-02T01:55:12;54.90;;;23.73;;
77278;SDS011;66332;50.436;15.378;2024-03-02T01:59:53;54.50;;;22.92;;
77278;SDS011;66332;50.436;15.378;2024-03-02T02:04:34;57.17;;;24.88;;
77278;SDS011;66332;50.436;15.378;2024-03-02T02:09:15;51.45;;;23.23;;
77278;SDS011;66332;50.436;15.378;2024-03-02T02:13:58;56.15;;;25.17;;
77278;SDS011;66332;50.436;15.378;2024-03-02T02:18:39;56.63;;;23.37;;
77278;SDS011;66332;50.436;15.378;2024-03-02T02:23:19;58.00;;;24.08;;
77278;SDS011;66332;50.436;15.378;2024-03-02T02:28:00;56.25;;;21.95;;
77278;SDS011;66332;50.436;15.378;2024-03-02T02:32:42;52.63;;;22.70;;
77278;SDS011;66332;50.436;15.378;2024-03-02T02:37:23;52.92;;;21.88;;
77278;SDS011;66332;50.436;15.378;2024-03-02T02:42:04;52.45;;;21.88;;
77278;SDS011;66332;50.436;15.378;2024-03-02T02:46:45;47.38;;;21.85;;
77278;SDS011;66332;50.436;15.378;2024-03-02T02:51:25;54.55;;;22.23;;
77278;SDS011;66332;50.436;15.378;2024-03-02T02:56:06;49.75;;;20.38;;
77278;SDS011;66332;50.436;15.378;2024-03-02T03:00:47;54.78;;;22.45;;
77278;SDS011;66332;50.436;15.378;2024-03-02T03:05:28;55.05;;;23.40;;
77278;SDS011;66332;50.436;15.378;2024-03-02T03:10:09;54.83;;;23.30;;
77278;SDS011;66332;50.436;15.378;2024-03-02T03:14:50;51.00;;;21.58;;
77278;SDS011;66332;50.436;15.378;2024-03-02T03:19:31;47.90;;;20.05;;
77278;SDS011;66332;50.436;15.378;2024-03-02T03:24:12;53.53;;;21.35;;
77278;SDS011;66332;50.436;15.378;2024-03-02T03:28:52;55.92;;;22.58;;
77278;SDS011;66332;50.436;15.378;2024-03-02T03:33:33;58.63;;;22.73;;
77278;SDS011;66332;50.436;15.378;2024-03-02T03:38:14;58.65;;;22.58;;
77278;SDS011;66332;50.436;15.378;2024-03-02T03:42:55;56.33;;;23.67;;
77278;SDS011;66332;50.436;15.378;2024-03-02T03:52:17;54.80;;;22.30;;
77278;SDS011;66332;50.436;15.378;2024-03-02T03:56:58;56.05;;;23.13;;
77278;SDS011;66332;50.436;15.378;2024-03-02T04:01:39;55.25;;;21.35;;
77278;SDS011;66332;50.436;15.378;2024-03-02T04:06:20;48.60;;;20.70;;
77278;SDS011;66332;50.436;15.378;2024-03-02T04:11:01;47.97;;;19.65;;
77278;SDS011;66332;50.436;15.378;2024-03-02T04:15:43;39.80;;;16.25;;
77278;SDS011;66332;50.436;15.378;2024-03-02T04:20:24;45.75;;;17.95;;
77278;SDS011;66332;50.436;15.378;2024-03-02T04:25:05;40.65;;;17.20;;
77278;SDS011;66332;50.436;15.378;2024-03-02T04:29:47;36.67;;;17.27;;
77278;SDS011;66332;50.436;15.378;2024-03-02T04:34:28;40.05;;;17.05;;
77278;SDS011;66332;50.436;15.378;2024-03-02T04:39:09;37.65;;;16.73;;
77278;SDS011;66332;50.436;15.378;2024-03-02T04:43:50;39.45;;;17.17;;
77278;SDS011;66332;50.436;15.378;2024-03-02T04:48:31;39.63;;;16.52;;
77278;SDS011;66332;50.436;15.378;2024-03-02T04:53:11;41.22;;;15.82;;
77278;SDS011;66332;50.436;15.378;2024-03-02T04:57:52;36.85;;;16.42;;
77278;SDS011;66332;50.436;15.378;2024-03-02T05:02:35;36.15;;;15.85;;
77278;SDS011;66332;50.436;15.378;2024-03-02T05:07:16;40.30;;;17.05;;
77278;SDS011;66332;50.436;15.378;2024-03-02T05:11:56;40.17;;;16.40;;
77278;SDS011;66332;50.436;15.378;2024-03-02T05:16:57;37.33;;;16.40;;
77278;SDS011;66332;50.436;15.378;2024-03-02T05:21:38;40.10;;;15.93;;
77278;SDS011;66332;50.436;15.378;2024-03-02T05:26:19;38.90;;;16.67;;
77278;SDS011;66332;50.436;15.378;2024-03-02T05:31:00;38.10;;;16.15;;
77278;SDS011;66332;50.436;15.378;2024-03-02T05:35:41;38.80;;;15.45;;
77278;SDS011;66332;50.436;15.378;2024-03-02T05:40:21;34.10;;;15.25;;
77278;SDS011;66332;50.436;15.378;2024-03-02T05:45:02;43.13;;;17.25;;
77278;SDS011;66332;50.436;15.378;2024-03-02T05:49:43;42.08;;;17.27;;
77278;SDS011;66332;50.436;15.378;2024-03-02T05:54:24;47.30;;;17.92;;
77278;SDS011;66332;50.436;15.378;2024-03-02T05:59:05;41.28;;;18.52;;
77278;SDS011;66332;50.436;15.378;2024-03-02T06:03:56;40.33;;;16.08;;
77278;SDS011;66332;50.436;15.378;2024-03-02T06:08:38;45.95;;;18.80;;
77278;SDS011;66332;50.436;15.378;2024-03-02T06:13:18;42.25;;;17.05;;
77278;SDS011;66332;50.436;15.378;2024-03-02T06:17:59;43.10;;;17.60;;
77278;SDS011;66332;50.436;15.378;2024-03-02T06:36:43;31.70;;;13.25;;
77278;SDS011;66332;50.436;15.378;2024-03-02T06:41:24;34.28;;;14.35;;
77278;SDS011;66332;50.436;15.378;2024-03-02T06:46:04;32.85;;;14.80;;
77278;SDS011;66332;50.436;15.378;2024-03-02T06:50:46;34.50;;;15.63;;
77278;SDS011;66332;50.436;15.378;2024-03-02T06:55:30;33.53;;;13.20;;
77278;SDS011;66332;50.436;15.378;2024-03-02T07:00:11;31.48;;;14.57;;
77278;SDS011;66332;50.436;15.378;2024-03-02T07:04:55;32.50;;;13.75;;
77278;SDS011;66332;50.436;15.378;2024-03-02T07:09:36;33.30;;;13.80;;
77278;SDS011;66332;50.436;15.378;2024-03-02T07:14:17;32.67;;;14.40;;
77278;SDS011;66332;50.436;15.378;2024-03-02T07:18:58;32.45;;;14.18;;
77278;SDS011;66332;50.436;15.378;2024-03-02T07:23:39;30.75;;;13.25;;
77278;SDS011;66332;50.436;15.378;2024-03-02T07:28:20;32.35;;;13.63;;
77278;SDS011;66332;50.436;15.378;2024-03-02T07:33:01;28.98;;;12.52;;
77278;SDS011;66332;50.436;15.378;2024-03-02T07:37:42;29.15;;;13.65;;
77278;SDS011;66332;50.436;15.378;2024-03-02T07:47:04;30.40;;;12.32;;
77278;SDS011;66332;50.436;15.378;2024-03-02T07:51:45;28.30;;;13.15;;
77278;SDS011;66332;50.436;15.378;2024-03-02T07:56:26;31.50;;;13.48;;
77278;SDS011;66332;50.436;15.378;2024-03-02T08:01:07;31.45;;;12.90;;
77278;SDS011;66332;50.436;15.378;2024-03-02T08:05:48;30.42;;;12.98;;
77278;SDS011;66332;50.436;15.378;2024-03-02T08:10:29;29.73;;;13.77;;
77278;SDS011;66332;50.436;15.378;2024-03-02T08:15:09;30.40;;;13.82;;
77278;SDS011;66332;50.436;15.378;2024-03-02T08:19:50;28.98;;;12.43;;
77278;SDS011;66332;50.436;15.378;2024-03-02T08:24:31;30.80;;;13.48;;
77278;SDS011;66332;50.436;15.378;2024-03-02T08:29:12;30.48;;;12.93;;
77278;SDS011;66332;50.436;15.378;2024-03-02T08:33:53;31.75;;;13.32;;
77278;SDS011;66332;50.436;15.378;2024-03-02T08:38:34;28.90;;;13.45;;
77278;SDS011;66332;50.436;15.378;2024-03-02T08:43:15;34.78;;;15.10;;
77278;SDS011;66332;50.436;15.378;2024-03-02T08:47:56;34.53;;;13.77;;
77278;SDS011;66332;50.436;15.378;2024-03-02T08:52:37;32.38;;;13.27;;
77278;SDS011;66332;50.436;15.378;2024-03-02T08:57:17;33.15;;;14.23;;
77278;SDS011;66332;50.436;15.378;2024-03-02T09:01:58;36.70;;;14.25;;
77278;SDS011;66332;50.436;15.378;2024-03-02T09:06:39;34.90;;;14.57;;
77278;SDS011;66332;50.436;15.378;2024-03-02T09:11:21;30.25;;;13.57;;
77278;SDS011;66332;50.436;15.378;2024-03-02T09:16:02;30.65;;;14.13;;
77278;SDS011;66332;50.436;15.378;2024-03-02T09:20:44;35.88;;;14.90;;
77278;SDS011;66332;50.436;15.378;2024-03-02T09:25:26;31.35;;;14.35;;
77278;SDS011;66332;50.436;15.378;2024-03-02T09:30:07;29.95;;;13.77;;
77278;SDS011;66332;50.436;15.378;2024-03-02T09:34:50;30.63;;;13.57;;
77278;SDS011;66332;50.436;15.378;2024-03-02T09:39:31;31.98;;;13.93;;
77278;SDS011;66332;50.436;15.378;2024-03-02T09:44:12;32.65;;;15.63;;
77278;SDS011;66332;50.436;15.378;2024-03-02T09:48:53;29.33;;;13.30;;
77278;SDS011;66332;50.436;15.378;2024-03-02T09:53:33;31.88;;;13.05;;
77278;SDS011;66332;50.436;15.378;2024-03-02T09:58:14;30.92;;;13.80;;
77278;SDS011;66332;50.436;15.378;2024-03-02T10:02:55;32.40;;;14.25;;
77278;SDS011;66332;50.436;15.378;2024-03-02T10:07:38;30.27;;;14.32;;
77278;SDS011;66332;50.436;15.378;2024-03-02T10:12:19;27.75;;;13.50;;
77278;SDS011;66332;50.436;15.378;2024-03-02T10:17:07;29.30;;;12.18;;
77278;SDS011;66332;50.436;15.378;2024-03-02T10:21:53;29.08;;;12.40;;
77278;SDS011;66332;50.436;15.378;2024-03-02T10:26:35;26.88;;;12.48;;
77278;SDS011;66332;50.436;15.378;2024-03-02T10:31:15;29.60;;;13.63;;
77278;SDS011;66332;50.436;15.378;2024-03-02T10:35:57;26.70;;;12.98;;
77278;SDS011;66332;50.436;15.378;2024-03-02T10:40:37;26.42;;;12.13;;
77278;SDS011;66332;50.436;15.378;2024-03-02T10:45:19;28.88;;;12.15;;
77278;SDS011;66332;50.436;15.378;2024-03-02T10:50:03;29.25;;;13.88;;
77278;SDS011;66332;50.436;15.378;2024-03-02T10:54:48;26.40;;;11.52;;
77278;SDS011;66332;50.436;15.378;2024-03-02T10:59:35;27.40;;;11.85;;
77278;SDS011;66332;50.436;15.378;2024-03-02T11:04:20;27.13;;;12.18;;
77278;SDS011;66332;50.436;15.378;2024-03-02T11:09:05;23.23;;;11.05;;
77278;SDS011;66332;50.436;15.378;2024-03-02T11:13:49;25.00;;;11.85;;
77278;SDS011;66332;50.436;15.378;2024-03-02T11:18:31;26.00;;;11.40;;
77278;SDS011;66332;50.436;15.378;2024-03-02T11:23:12;26.95;;;12.02;;
77278;SDS011;66332;50.436;15.378;2024-03-02T11:32:35;29.27;;;12.70;;
77278;SDS011;66332;50.436;15.378;2024-03-02T11:37:16;26.08;;;11.90;;
77278;SDS011;66332;50.436;15.378;2024-03-02T11:41:58;29.70;;;13.02;;
77278;SDS011;66332;50.436;15.378;2024-03-02T11:46:40;28.13;;;12.55;;
77278;SDS011;66332;50.436;15.378;2024-03-02T11:51:21;28.40;;;12.85;;
77278;SDS011;66332;50.436;15.378;2024-03-02T11:56:02;29.92;;;13.40;;
77278;SDS011;66332;50.436;15.378;2024-03-02T12:00:43;32.67;;;13.70;;
77278;SDS011;66332;50.436;15.378;2024-03-02T12:10:06;31.05;;;13.60;;
77278;SDS011;66332;50.436;15.378;2024-03-02T12:14:51;31.73;;;13.77;;
77278;SDS011;66332;50.436;15.378;2024-03-02T12:19:35;32.47;;;14.43;;
77278;SDS011;66332;50.436;15.378;2024-03-02T12:24:16;33.50;;;16.05;;
77278;SDS011;66332;50.436;15.378;2024-03-02T12:28:57;30.58;;;13.43;;
77278;SDS011;66332;50.436;15.378;2024-03-02T12:33:38;32.72;;;14.98;;
77278;SDS011;66332;50.436;15.378;2024-03-02T12:38:22;30.67;;;14.52;;
77278;SDS011;66332;50.436;15.378;2024-03-02T12:43:06;29.45;;;14.82;;
77278;SDS011;66332;50.436;15.378;2024-03-02T12:47:47;31.20;;;14.60;;
77278;SDS011;66332;50.436;15.378;2024-03-02T12:52:28;31.50;;;14.45;;
77278;SDS011;66332;50.436;15.378;2024-03-02T12:57:09;34.92;;;15.60;;
77278;SDS011;66332;50.436;15.378;2024-03-02T13:01:50;29.90;;;15.75;;
77278;SDS011;66332;50.436;15.378;2024-03-02T13:06:32;31.17;;;15.13;;
77278;SDS011;66332;50.436;15.378;2024-03-02T13:11:14;31.45;;;14.32;;
77278;SDS011;66332;50.436;15.378;2024-03-02T13:15:56;34.53;;;15.55;;
77278;SDS011;66332;50.436;15.378;2024-03-02T13:20:37;33.38;;;15.85;;
77278;SDS011;66332;50.436;15.378;2024-03-02T13:25:19;32.78;;;15.43;;
77278;SDS011;66332;50.436;15.378;2024-03-02T13:30:01;30.90;;;15.75;;
77278;SDS011;66332;50.436;15.378;2024-03-02T13:34:43;33.13;;;15.20;;
77278;SDS011;66332;50.436;15.378;2024-03-02T13:39:24;29.25;;;14.23;;
77278;SDS011;66332;50.436;15.378;2024-03-02T13:44:05;33.25;;;16.00;;
77278;SDS011;66332;50.436;15.378;2024-03-02T13:48:45;29.17;;;13.50;;
77278;SDS011;66332;50.436;15.378;2024-03-02T13:53:26;31.20;;;15.02;;
77278;SDS011;66332;50.436;15.378;2024-03-02T13:58:08;27.80;;;13.13;;
77278;SDS011;66332;50.436;15.378;2024-03-02T14:02:49;29.27;;;13.27;;
77278;SDS011;66332;50.436;15.378;2024-03-02T14:07:31;29.40;;;12.98;;
77278;SDS011;66332;50.436;15.378;2024-03-02T14:12:12;29.98;;;13.45;;
77278;SDS011;66332;50.436;15.378;2024-03-02T14:16:54;30.08;;;13.50;;
77278;SDS011;66332;50.436;15.378;2024-03-02T14:21:36;22.48;;;12.07;;
77278;SDS011;66332;50.436;15.378;2024-03-02T14:26:17;24.98;;;12.20;;
77278;SDS011;66332;50.436;15.378;2024-03-02T14:30:58;24.15;;;12.48;;
77278;SDS011;66332;50.436;15.378;2024-03-02T14:35:41;27.42;;;13.35;;
77278;SDS011;66332;50.436;15.378;2024-03-02T14:40:22;24.38;;;13.05;;
77278;SDS011;66332;50.436;15.378;2024-03-02T14:45:06;31.33;;;15.57;;
77278;SDS011;66332;50.436;15.378;2024-03-02T14:49:46;26.38;;;13.50;;
77278;SDS011;66332;50.436;15.378;2024-03-02T14:54:27;22.08;;;11.40;;
77278;SDS011;66332;50.436;15.378;2024-03-02T14:59:08;21.35;;;11.63;;
77278;SDS011;66332;50.436;15.378;2024-03-02T15:03:50;26.42;;;13.45;;
77278;SDS011;66332;50.436;15.378;2024-03-02T15:13:13;29.15;;;14.75;;
77278;SDS011;66332;50.436;15.378;2024-03-02T15:17:54;25.85;;;13.52;;
77278;SDS011;66332;50.436;15.378;2024-03-02T15:22:34;28.92;;;13.80;;
77278;SDS011;66332;50.436;15.378;2024-03-02T15:27:15;28.73;;;13.95;;
77278;SDS011;66332;50.436;15.378;2024-03-02T15:31:57;28.63;;;13.82;;
77278;SDS011;66332;50.436;15.378;2024-03-02T15:41:18;27.73;;;14.48;;
77278;SDS011;66332;50.436;15.378;2024-03-02T15:45:59;30.38;;;15.00;;
77278;SDS011;66332;50.436;15.378;2024-03-02T15:50:40;28.23;;;15.05;;
77278;SDS011;66332;50.436;15.378;2024-03-02T15:55:21;27.92;;;15.30;;
77278;SDS011;66332;50.436;15.378;2024-03-02T16:00:02;29.85;;;14.88;;
77278;SDS011;66332;50.436;15.378;2024-03-02T16:04:45;24.13;;;13.55;;
77278;SDS011;66332;50.436;15.378;2024-03-02T16:09:26;30.90;;;16.83;;
77278;SDS011;66332;50.436;15.378;2024-03-02T16:14:07;31.38;;;16.15;;
77278;SDS011;66332;50.436;15.378;2024-03-02T16:18:47;28.33;;;15.05;;
77278;SDS011;66332;50.436;15.378;2024-03-02T16:23:28;28.08;;;15.27;;
77278;SDS011;66332;50.436;15.378;2024-03-02T16:28:09;29.42;;;15.38;;
77278;SDS011;66332;50.436;15.378;2024-03-02T16:32:50;31.58;;;16.30;;
77278;SDS011;66332;50.436;15.378;2024-03-02T16:37:31;29.55;;;16.33;;
77278;SDS011;66332;50.436;15.378;2024-03-02T16:42:11;33.03;;;16.70;;
77278;SDS011;66332;50.436;15.378;2024-03-02T16:46:52;30.38;;;15.57;;
77278;SDS011;66332;50.436;15.378;2024-03-02T16:51:42;29.85;;;16.92;;
77278;SDS011;66332;50.436;15.378;2024-03-02T16:56:24;30.20;;;15.07;;
77278;SDS011;66332;50.436;15.378;2024-03-02T17:01:05;29.65;;;16.13;;
77278;SDS011;66332;50.436;15.378;2024-03-02T17:05:46;28.92;;;16.33;;
77278;SDS011;66332;50.436;15.378;2024-03-02T17:10:27;35.45;;;17.17;;
77278;SDS011;66332;50.436;15.378;2024-03-02T17:15:08;33.55;;;17.52;;
77278;SDS011;66332;50.436;15.378;2024-03-02T17:24:30;35.15;;;20.52;;
77278;SDS011;66332;50.436;15.378;2024-03-02T17:29:10;33.10;;;17.02;;
77278;SDS011;66332;50.436;15.378;2024-03-02T17:33:52;34.10;;;17.48;;
77278;SDS011;66332;50.436;15.378;2024-03-02T17:38:33;30.20;;;16.45;;
77278;SDS011;66332;50.436;15.378;2024-03-02T17:43:14;35.08;;;17.70;;
77278;SDS011;66332;50.436;15.378;2024-03-02T17:47:55;31.20;;;17.77;;
77278;SDS011;66332;50.436;15.378;2024-03-02T17:52:36;33.47;;;16.88;;
77278;SDS011;66332;50.436;15.378;2024-03-02T17:57:16;38.42;;;19.73;;
77278;SDS011;66332;50.436;15.378;2024-03-02T18:01:57;37.30;;;19.30;;
77278;SDS011;66332;50.436;15.378;2024-03-02T18:06:38;35.63;;;18.67;;
77278;SDS011;66332;50.436;15.378;2024-03-02T18:11:19;34.90;;;19.65;;
77278;SDS011;66332;50.436;15.378;2024-03-02T18:16:04;35.33;;;18.25;;
77278;SDS011;66332;50.436;15.378;2024-03-02T18:20:45;37.22;;;18.15;;
77278;SDS011;66332;50.436;15.378;2024-03-02T18:25:25;32.45;;;17.13;;
77278;SDS011;66332;50.436;15.378;2024-03-02T18:30:06;35.10;;;16.77;;
77278;SDS011;66332;50.436;15.378;2024-03-02T18:34:50;31.92;;;17.25;;
77278;SDS011;66332;50.436;15.378;2024-03-02T18:39:31;30.60;;;15.93;;
77278;SDS011;66332;50.436;15.378;2024-03-02T18:44:12;29.73;;;16.10;;
77278;SDS011;66332;50.436;15.378;2024-03-02T18:48:53;30.75;;;15.88;;
77278;SDS011;66332;50.436;15.378;2024-03-02T18:53:34;32.38;;;17.23;;
77278;SDS011;66332;50.436;15.378;2024-03-02T18:58:15;34.25;;;17.08;;
77278;SDS011;66332;50.436;15.378;2024-03-02T19:02:56;33.67;;;16.67;;
77278;SDS011;66332;50.436;15.378;2024-03-02T19:07:37;31.92;;;16.92;;
77278;SDS011;66332;50.436;15.378;2024-03-02T19:12:18;32.30;;;16.98;;
77278;SDS011;66332;50.436;15.378;2024-03-02T19:16:59;29.67;;;15.73;;
77278;SDS011;66332;50.436;15.378;2024-03-02T19:21:40;30.33;;;15.68;;
77278;SDS011;66332;50.436;15.378;2024-03-02T19:26:21;32.38;;;15.40;;
77278;SDS011;66332;50.436;15.378;2024-03-02T19:31:01;29.65;;;15.82;;
77278;SDS011;66332;50.436;15.378;2024-03-02T19:35:43;31.02;;;15.10;;
77278;SDS011;66332;50.436;15.378;2024-03-02T19:40:25;30.48;;;15.50;;
77278;SDS011;66332;50.436;15.378;2024-03-02T19:45:06;29.88;;;14.48;;
77278;SDS011;66332;50.436;15.378;2024-03-02T19:49:46;26.98;;;13.65;;
77278;SDS011;66332;50.436;15.378;2024-03-02T19:54:28;28.50;;;14.35;;
77278;SDS011;66332;50.436;15.378;2024-03-02T19:59:09;30.80;;;15.27;;
77278;SDS011;66332;50.436;15.378;2024-03-02T20:03:52;30.92;;;15.85;;
77278;SDS011;66332;50.436;15.378;2024-03-02T20:08:33;27.38;;;14.50;;
77278;SDS011;66332;50.436;15.378;2024-03-02T20:13:14;28.52;;;15.00;;
77278;SDS011;66332;50.436;15.378;2024-03-02T20:17:56;26.60;;;14.13;;
77278;SDS011;66332;50.436;15.378;2024-03-02T20:22:37;25.05;;;12.52;;
77278;SDS011;66332;50.436;15.378;2024-03-02T20:27:17;27.33;;;13.23;;
77278;SDS011;66332;50.436;15.378;2024-03-02T20:32:02;27.27;;;13.93;;
77278;SDS011;66332;50.436;15.378;2024-03-02T20:36:43;25.10;;;12.93;;
77278;SDS011;66332;50.436;15.378;2024-03-02T20:41:24;27.40;;;12.77;;
77278;SDS011;66332;50.436;15.378;2024-03-02T20:46:06;23.48;;;12.65;;
77278;SDS011;66332;50.436;15.378;2024-03-02T20:50:47;22.33;;;11.70;;
77278;SDS011;66332;50.436;15.378;2024-03-02T20:55:28;22.85;;;12.25;;
77278;SDS011;66332;50.436;15.378;2024-03-02T21:00:10;22.10;;;11.77;;
77278;SDS011;66332;50.436;15.378;2024-03-02T21:04:51;21.55;;;10.63;;
77278;SDS011;66332;50.436;15.378;2024-03-02T21:09:32;24.27;;;12.77;;
77278;SDS011;66332;50.436;15.378;2024-03-02T21:14:13;22.48;;;12.32;;
77278;SDS011;66332;50.436;15.378;2024-03-02T21:18:54;22.27;;;11.45;;
77278;SDS011;66332;50.436;15.378;2024-03-02T21:23:35;21.88;;;11.75;;
77278;SDS011;66332;50.436;15.378;2024-03-02T21:28:16;20.85;;;11.18;;
77278;SDS011;66332;50.436;15.378;2024-03-02T21:32:57;23.58;;;11.63;;
77278;SDS011;66332;50.436;15.378;2024-03-02T21:37:38;20.77;;;11.25;;
77278;SDS011;66332;50.436;15.378;2024-03-02T21:42:19;19.15;;;10.30;;
77278;SDS011;66332;50.436;15.378;2024-03-02T21:47:00;18.50;;;10.70;;
77278;SDS011;66332;50.436;15.378;2024-03-02T21:51:41;19.98;;;10.95;;
77278;SDS011;66332;50.436;15.378;2024-03-02T21:56:21;18.73;;;10.05;;
77278;SDS011;66332;50.436;15.378;2024-03-02T22:01:02;16.25;;;8.77;;
77278;SDS011;66332;50.436;15.378;2024-03-02T22:05:44;23.95;;;12.75;;
77278;SDS011;66332;50.436;15.378;2024-03-02T22:10:24;23.52;;;10.48;;
77278;SDS011;66332;50.436;15.378;2024-03-02T22:15:05;20.42;;;10.75;;
77278;SDS011;66332;50.436;15.378;2024-03-02T22:19:46;21.45;;;11.32;;
77278;SDS011;66332;50.436;15.378;2024-03-02T22:24:27;21.35;;;11.77;;
77278;SDS011;66332;50.436;15.378;2024-03-02T22:29:08;21.85;;;10.25;;
77278;SDS011;66332;50.436;15.378;2024-03-02T22:33:49;18.60;;;9.73;;
77278;SDS011;66332;50.436;15.378;2024-03-02T22:38:30;21.40;;;10.77;;
77278;SDS011;66332;50.436;15.378;2024-03-02T22:43:11;21.05;;;10.52;;
77278;SDS011;66332;50.436;15.378;2024-03-02T22:47:52;19.75;;;10.18;;
77278;SDS011;66332;50.436;15.378;2024-03-02T22:52:34;21.85;;;10.38;;
77278;SDS011;66332;50.436;15.378;2024-03-02T22:57:16;19.05;;;9.32;;
77278;SDS011;66332;50.436;15.378;2024-03-02T23:01:59;21.55;;;10.23;;
77278;SDS011;66332;50.436;15.378;2024-03-02T23:06:40;22.60;;;11.40;;
77278;SDS011;66332;50.436;15.378;2024-03-02T23:11:21;20.27;;;11.43;;
77278;SDS011;66332;50.436;15.378;2024-03-02T23:16:02;22.42;;;10.98;;
77278;SDS011;66332;50.436;15.378;2024-03-02T23:20:43;22.13;;;11.18;;
77278;SDS011;66332;50.436;15.378;2024-03-02T23:25:24;21.67;;;11.68;;
77278;SDS011;66332;50.436;15.378;2024-03-02T23:30:05;20.17;;;11.75;;
77278;SDS011;66332;50.436;15.378;2024-03-02T23:39:27;21.63;;;11.45;;
77278;SDS011;66332;50.436;15.378;2024-03-02T23:44:46;20.08;;;9.70;;
77278;SDS011;66332;50.436;15.378;2024-03-02T23:49:27;20.05;;;9.50;;
77278;SDS011;66332;50.436;15.378;2024-03-02T23:54:08;18.23;;;9.45;;
77278;SDS011;66332;50.436;15.378;2024-03-02T23:58:49;18.75;;;8.70;;
